createdAt,value
2023-02-25T00:00:36.848Z,96354.25
2023-02-25T00:03:15.786Z,96355.84
2023-02-25T00:05:53.550Z,96337.21
2023-02-25T00:08:32.531Z,96343.29
2023-02-25T00:11:24.641Z,96336.61
2023-02-25T00:13:55.627Z,96336.61
2023-02-25T00:16:45.244Z,96328.53
2023-02-25T00:19:27.705Z,96328.92
2023-02-25T00:22:04.528Z,96322.59
2023-02-25T00:24:47.673Z,96313.19
2023-02-25T00:27:23.529Z,96307.61
2023-02-25T00:30:00.835Z,96310.37
2023-02-25T00:32:35.986Z,96296.45
2023-02-25T00:35:13.030Z,96290.34
2023-02-25T00:38:15.620Z,96289.09
2023-02-25T00:40:47.540Z,96298.97
2023-02-25T00:43:21.098Z,96290.70
2023-02-25T00:45:53.960Z,96293.18
2023-02-25T00:48:28.871Z,96286.84
2023-02-25T00:51:12.312Z,96284.45
2023-02-25T00:53:45.353Z,96282.87
2023-02-25T00:56:20.876Z,96286.05
2023-02-25T00:58:51.964Z,96283.46
2023-02-25T01:01:42.692Z,96276.57
2023-02-25T01:04:24.748Z,96258.16
2023-02-25T01:07:08.792Z,96252.70
2023-02-25T01:09:45.522Z,96249.77
2023-02-25T01:12:22.567Z,96239.02
2023-02-25T01:14:56.717Z,96234.61
2023-02-25T01:17:24.914Z,96240.50
2023-02-25T01:20:05.552Z,96228.61
2023-02-25T01:22:41.918Z,96226.86
2023-02-25T01:25:14.133Z,96231.59
2023-02-25T01:27:42.330Z,96226.61
2023-02-25T01:30:12.107Z,96217.95
2023-02-25T01:32:42.615Z,96225.48
2023-02-25T01:35:19.228Z,96231.00
2023-02-25T01:38:03.005Z,96217.91
2023-02-25T01:40:35.352Z,96209.08
2023-02-25T01:43:28.724Z,96204.86
2023-02-25T01:46:05.099Z,96204.48
2023-02-25T01:48:41.279Z,96202.05
2023-02-25T01:51:14.467Z,96198.81
2023-02-25T01:53:49.950Z,96201.34
2023-02-25T01:56:42.887Z,96203.19
2023-02-25T01:59:13.481Z,96201.11
2023-02-25T02:01:49.608Z,96179.16
2023-02-25T02:04:26.592Z,96189.62
2023-02-25T02:06:56.745Z,96186.81
2023-02-25T02:09:31.543Z,96185.02
2023-02-25T02:12:04.985Z,96172.45
2023-02-25T02:14:47.643Z,96155.52
2023-02-25T02:17:41.100Z,96157.32
2023-02-25T02:20:50.642Z,96157.39
2023-02-25T02:24:05.643Z,96157.77
2023-02-25T02:27:20.296Z,96148.69
2023-02-25T02:30:26.534Z,96151.25
2023-02-25T02:33:16.425Z,96143.91
2023-02-25T02:36:19.513Z,96130.58
2023-02-25T02:39:15.526Z,96124.68
2023-02-25T02:42:28.696Z,96122.30
2023-02-25T02:45:05.611Z,96142.50
2023-02-25T02:48:01.901Z,96141.65
2023-02-25T02:50:45.595Z,96142.05
2023-02-25T02:53:28.062Z,96142.48
2023-02-25T02:56:22.043Z,96142.83
2023-02-25T02:59:20.285Z,96146.14
2023-02-25T03:02:22.829Z,96141.79
2023-02-25T03:05:02.710Z,96133.69
2023-02-25T03:08:16.292Z,96127.20
2023-02-25T03:10:50.246Z,96120.15
2023-02-25T03:13:39.219Z,96127.48
2023-02-25T03:16:51.923Z,96118.91
2023-02-25T03:19:49.148Z,96120.24
2023-02-25T03:22:29.371Z,96114.08
2023-02-25T03:25:29.521Z,96114.83
2023-02-25T03:28:18.526Z,96098.91
2023-02-25T03:31:22.752Z,96109.70
2023-02-25T03:34:16.485Z,96102.11
2023-02-25T03:37:03.693Z,96087.43
2023-02-25T03:39:42.977Z,96076.02
2023-02-25T03:43:30.624Z,96071.85
2023-02-25T08:01:24.461Z,95797.68
2023-02-25T08:03:55.055Z,95808.63
2023-02-25T08:06:23.099Z,95801.45
2023-02-25T08:08:52.258Z,95805.49
2023-02-25T08:11:21.961Z,95818.48
2023-02-25T08:13:51.094Z,95824.38
2023-02-25T08:16:21.781Z,95811.50
2023-02-25T08:19:31.509Z,95805.52
2023-02-25T08:23:40.390Z,95812.86
2023-02-25T08:27:35.382Z,95818.27
2023-02-25T08:31:17.762Z,95821.98
2023-02-25T08:33:58.540Z,95802.99
2023-02-25T08:36:47.003Z,95794.91
2023-02-25T08:39:23.052Z,95801.23
2023-02-25T08:41:55.300Z,95802.58
2023-02-25T08:44:28.931Z,95810.00
2023-02-25T08:47:03.489Z,95784.51
2023-02-25T08:50:00.759Z,95780.44
2023-02-25T17:34:30.870Z,96186.86
2023-02-25T17:37:09.221Z,96191.05
2023-02-25T17:39:52.256Z,96191.50
2023-02-25T17:42:34.548Z,96178.72
2023-02-25T17:45:27.448Z,96173.90
2023-02-25T17:47:58.900Z,96178.10
2023-02-25T17:50:35.091Z,96172.91
2023-02-25T17:53:36.056Z,96177.75
2023-02-25T17:56:34.827Z,96187.38
2023-02-25T17:59:38.266Z,96198.00
2023-02-25T18:03:03.097Z,96196.95
2023-02-25T18:05:52.842Z,96188.58
2023-02-25T18:08:28.297Z,96187.66
2023-02-25T18:11:31.043Z,96190.35
2023-02-25T18:14:43.554Z,96183.67
2023-02-25T18:17:41.161Z,96192.07
2023-02-25T18:21:12.504Z,96193.09
2023-02-25T18:24:04.780Z,96209.95
2023-02-25T18:26:34.015Z,96212.98
2023-02-25T18:29:19.750Z,96210.04
2023-02-25T18:32:01.102Z,96208.16
2023-02-25T18:34:33.927Z,96217.52
2023-02-25T18:37:30.489Z,96217.25
2023-02-25T18:40:01.993Z,96217.90
2023-02-25T18:42:54.369Z,96224.92
2023-02-25T18:45:29.521Z,96227.79
2023-02-25T18:48:04.096Z,96222.91
2023-02-25T18:50:34.643Z,96225.18
2023-02-25T18:53:37.140Z,96223.42
2023-02-25T19:29:14.889Z,96269.37
2023-02-25T19:32:28.570Z,96265.11
2023-02-25T19:35:01.965Z,96265.37
2023-02-25T19:37:56.357Z,96268.23
2023-02-25T19:40:31.367Z,96264.73
2023-02-25T19:43:08.487Z,96246.48
2023-02-25T19:45:43.038Z,96236.51
2023-02-25T19:48:24.067Z,96220.31
2023-02-25T19:51:17.157Z,96208.93
2023-02-25T19:54:12.697Z,96226.92
2023-02-25T19:56:48.233Z,96237.35
2023-02-25T19:59:21.335Z,96244.67
2023-02-25T20:02:17.096Z,96246.63
2023-02-25T20:05:49.029Z,96260.67
2023-02-25T20:08:46.296Z,96252.02
2023-02-25T20:11:23.462Z,96226.20
2023-02-25T20:14:14.999Z,96218.28
2023-02-25T20:17:13.085Z,96223.77
2023-02-25T20:19:43.338Z,96232.67
2023-02-25T20:22:13.735Z,96232.13
2023-02-25T20:24:58.921Z,96224.88
2023-02-25T20:27:37.225Z,96220.48
2023-02-25T20:30:34.061Z,96229.36
2023-02-25T20:33:19.155Z,96243.58
2023-02-25T20:35:58.411Z,96246.73
2023-02-25T20:38:42.344Z,96247.09
2023-02-25T20:41:32.632Z,96241.69
2023-02-25T20:44:12.750Z,96235.27
